Time;durP1;ratioP1;P1;durP2;ratioP2;P2;SDS_P1;SDS_P2;PMS_P1;PMS_P2;Temp;Humidity;BMP_temperature;BMP_pressure;BME280_temperature;BME280_humidity;BME280_pressure;Samples;Min_cycle;Max_cycle;Signal;HPM_P1;HPM_P2
2023/01/27 00:00:35;;;;;;;16.88;8.10;;;1.40;86.50;;;;;;5081220;28;20040;-60
2023/01/27 00:03:02;;;;;;;18.95;9.13;;;1.40;86.50;;;;;;5082595;28;20071;-61
2023/01/27 00:05:33;;;;;;;17.35;7.68;;;1.40;86.50;;;;;;5085746;28;20506;-65
2023/01/27 00:08:03;;;;;;;18.63;8.68;;;1.40;86.50;;;;;;5082662;28;20044;-65
2023/01/27 00:10:37;;;;;;;19.17;8.85;;;1.40;86.60;;;;;;5085662;28;20505;-72
2023/01/27 00:15:56;;;;;;;19.50;8.18;;;1.40;86.70;;;;;;5084159;28;20415;-65
2023/01/27 00:18:23;;;;;;;16.73;8.85;;;1.40;86.60;;;;;;5080764;28;20079;-66
2023/01/27 00:26:20;;;;;;;22.65;9.65;;;1.40;86.70;;;;;;5086782;28;20133;-73
2023/01/27 00:28:47;;;;;;;19.02;9.05;;;1.40;86.80;;;;;;5079702;28;20510;-71
2023/01/27 00:34:07;;;;;;;20.88;9.23;;;1.40;86.70;;;;;;5085447;28;20089;-69
2023/01/27 00:36:35;;;;;;;21.02;9.32;;;1.40;86.70;;;;;;5067137;28;20135;-69
2023/01/27 00:39:04;;;;;;;21.73;9.80;;;1.50;86.70;;;;;;5084369;28;20173;-67
2023/01/27 00:41:33;;;;;;;21.33;8.70;;;1.40;86.70;;;;;;5082086;28;20048;-62
2023/01/27 00:44:00;;;;;;;18.67;8.70;;;1.40;86.80;;;;;;5066819;28;20048;-62
2023/01/27 00:46:28;;;;;;;20.13;9.05;;;1.40;86.90;;;;;;5065751;28;20419;-59
2023/01/27 00:48:55;;;;;;;17.38;8.48;;;1.40;86.80;;;;;;5084119;28;20059;-58
2023/01/27 00:51:22;;;;;;;23.45;9.50;;;1.40;86.90;;;;;;5062099;28;20048;-71
2023/01/27 00:53:50;;;;;;;19.20;9.15;;;1.40;86.90;;;;;;5064125;28;20056;-72
2023/01/27 00:56:18;;;;;;;21.42;9.90;;;1.40;86.90;;;;;;5063161;28;20044;-65
2023/01/27 00:58:46;;;;;;;20.77;9.93;;;1.40;87.00;;;;;;5084186;28;20134;-65
2023/01/27 01:01:15;;;;;;;22.92;9.98;;;1.40;87.00;;;;;;5066629;28;20043;-61
2023/01/27 01:03:42;;;;;;;20.02;9.68;;;1.40;87.00;;;;;;5085019;28;20055;-61
2023/01/27 01:06:12;;;;;;;20.60;10.10;;;1.40;87.00;;;;;;5081639;28;20074;-59
2023/01/27 01:08:39;;;;;;;21.48;8.82;;;1.40;86.90;;;;;;5084318;28;20052;-60
2023/01/27 01:11:08;;;;;;;21.52;9.02;;;1.50;86.80;;;;;;5086728;28;20044;-60
2023/01/27 01:13:35;;;;;;;19.40;9.40;;;1.40;86.80;;;;;;5084826;28;21957;-59
2023/01/27 01:16:07;;;;;;;19.95;10.02;;;1.40;87.00;;;;;;5082958;28;20055;-60
2023/01/27 01:18:34;;;;;;;20.25;9.00;;;1.50;86.90;;;;;;5085685;28;20393;-60
2023/01/27 01:21:02;;;;;;;20.55;9.35;;;1.50;86.80;;;;;;5091893;28;20048;-61
2023/01/27 01:23:30;;;;;;;21.27;10.27;;;1.50;86.80;;;;;;5065891;28;20048;-61
2023/01/27 01:25:57;;;;;;;19.95;9.23;;;1.50;86.80;;;;;;5070008;28;20067;-68
2023/01/27 01:28:25;;;;;;;18.42;9.05;;;1.50;86.80;;;;;;5085382;28;20047;-68
2023/01/27 01:30:53;;;;;;;21.67;9.05;;;1.50;86.80;;;;;;5067070;28;20043;-59
2023/01/27 01:33:21;;;;;;;17.45;8.63;;;1.50;86.80;;;;;;5089964;28;20075;-59
2023/01/27 01:35:49;;;;;;;19.02;9.43;;;1.50;86.80;;;;;;5085929;28;20055;-69
2023/01/27 01:38:16;;;;;;;20.92;8.60;;;1.50;86.80;;;;;;5086305;28;20048;-69
2023/01/27 01:40:44;;;;;;;19.58;9.07;;;1.40;86.90;;;;;;5088500;28;20056;-59
2023/01/27 01:43:16;;;;;;;22.20;8.43;;;1.40;86.90;;;;;;5085277;28;20127;-60
2023/01/27 01:45:54;;;;;;;21.75;9.50;;;1.50;86.80;;;;;;5086609;28;20052;-59
2023/01/27 01:48:33;;;;;;;19.42;8.48;;;1.50;86.80;;;;;;5088080;28;20044;-60
2023/01/27 01:51:04;;;;;;;17.85;8.32;;;1.50;86.80;;;;;;5068851;28;20496;-69
2023/01/27 01:53:38;;;;;;;21.17;10.27;;;1.40;86.90;;;;;;5078681;28;20148;-69
2023/01/27 01:56:10;;;;;;;21.33;9.32;;;1.50;86.80;;;;;;5088974;28;20081;-68
2023/01/27 01:58:39;;;;;;;22.23;9.10;;;1.50;86.90;;;;;;5079819;28;20044;-68
2023/01/27 02:01:07;;;;;;;20.27;9.48;;;1.40;86.90;;;;;;5076136;28;20123;-72
2023/01/27 02:03:42;;;;;;;22.23;8.52;;;1.40;86.90;;;;;;5081557;28;20125;-70
2023/01/27 02:06:10;;;;;;;18.75;8.85;;;1.40;87.00;;;;;;5082988;28;20058;-72
2023/01/27 02:08:42;;;;;;;19.17;9.35;;;1.40;87.00;;;;;;5089479;28;20052;-70
2023/01/27 02:11:09;;;;;;;20.08;9.63;;;1.50;86.90;;;;;;5068407;28;20125;-62
2023/01/27 02:13:39;;;;;;;18.30;8.85;;;1.50;86.90;;;;;;5085205;28;20539;-61
2023/01/27 02:16:09;;;;;;;20.02;9.07;;;1.50;86.80;;;;;;5087839;28;20048;-62
2023/01/27 02:18:39;;;;;;;20.90;8.93;;;1.50;86.80;;;;;;5083896;28;20055;-61
2023/01/27 02:21:07;;;;;;;17.48;8.18;;;1.50;86.90;;;;;;5084750;28;20052;-60
2023/01/27 02:23:46;;;;;;;17.98;8.63;;;1.60;86.90;;;;;;5081934;28;20055;-58
2023/01/27 02:26:18;;;;;;;17.42;7.80;;;1.50;87.00;;;;;;5064197;28;20048;-59
2023/01/27 02:28:45;;;;;;;17.92;9.05;;;1.50;87.00;;;;;;5085397;28;20406;-60
2023/01/27 02:31:12;;;;;;;19.08;8.98;;;1.50;86.90;;;;;;5060438;28;20070;-69
2023/01/27 02:33:39;;;;;;;18.67;9.00;;;1.50;86.90;;;;;;5063251;28;20555;-69
2023/01/27 02:36:09;;;;;;;17.45;9.25;;;1.50;86.90;;;;;;5068148;28;20040;-66
2023/01/27 02:38:40;;;;;;;19.83;9.25;;;1.50;86.90;;;;;;5061643;28;20048;-65
2023/01/27 02:41:09;;;;;;;;;;;1.50;87.00;;;;;;5070862;28;20494;-64
2023/01/27 02:43:41;;;;;;;18.33;8.48;;;1.50;87.00;;;;;;5086691;28;19946;-63
2023/01/27 02:46:08;;;;;;;20.75;9.38;;;1.60;87.10;;;;;;5062756;28;20044;-65
2023/01/27 02:48:35;;;;;;;20.08;8.90;;;1.50;87.00;;;;;;5082347;28;20383;-65
2023/01/27 02:51:02;;;;;;;18.27;8.85;;;1.60;87.00;;;;;;5067224;28;20064;-69
2023/01/27 02:53:31;;;;;;;18.20;8.20;;;1.50;87.10;;;;;;5062476;28;20048;-69
2023/01/27 02:55:58;;;;;;;17.63;8.50;;;1.50;87.00;;;;;;5083016;28;20052;-61
2023/01/27 02:58:25;;;;;;;22.15;9.38;;;1.50;87.00;;;;;;5083910;28;20059;-60
2023/01/27 03:00:59;;;;;;;17.13;7.80;;;1.60;86.90;;;;;;5065500;28;20040;-69
2023/01/27 03:03:26;;;;;;;18.92;8.48;;;1.60;86.70;;;;;;5060557;28;20059;-67
2023/01/27 03:05:53;;;;;;;16.25;6.78;;;1.60;86.70;;;;;;5081112;28;20051;-61
2023/01/27 03:08:20;;;;;;;14.27;6.53;;;1.60;86.50;;;;;;5065716;28;20050;-60
2023/01/27 03:10:51;;;;;;;13.75;6.30;;;1.60;86.40;;;;;;5088817;28;20127;-60
2023/01/27 03:13:22;;;;;;;15.52;6.90;;;1.60;86.40;;;;;;5067347;28;20046;-60
2023/01/27 03:18:38;;;;;;;14.35;6.20;;;1.70;86.30;;;;;;5082423;28;20044;-60
2023/01/27 03:21:06;;;;;;;15.70;6.20;;;1.60;86.30;;;;;;5083835;28;20871;-62
2023/01/27 03:23:34;;;;;;;13.07;5.35;;;1.70;86.30;;;;;;5064495;28;20663;-60
2023/01/27 03:26:02;;;;;;;14.25;5.88;;;1.70;86.30;;;;;;5067969;28;20138;-60
2023/01/27 03:28:30;;;;;;;13.68;5.55;;;1.70;86.30;;;;;;5085587;28;20117;-60
2023/01/27 03:31:07;;;;;;;9.50;4.65;;;1.70;85.90;;;;;;5062886;28;20113;-64
2023/01/27 03:33:51;;;;;;;10.57;4.40;;;1.70;85.80;;;;;;5067494;28;20085;-64
2023/01/27 03:47:31;;;;;;;8.57;3.75;;;1.70;85.60;;;;;;5088396;28;20097;-60
2023/01/27 03:49:59;;;;;;;9.52;4.00;;;1.70;85.60;;;;;;5083322;28;20059;-61
2023/01/27 03:52:27;;;;;;;10.82;4.22;;;1.70;85.50;;;;;;5087670;28;20127;-69
2023/01/27 03:54:53;;;;;;;10.70;4.47;;;1.70;85.50;;;;;;5083536;28;20287;-70
2023/01/27 03:57:20;;;;;;;7.05;3.30;;;1.70;85.50;;;;;;5085583;28;20051;-59
2023/01/27 03:59:47;;;;;;;7.55;3.42;;;1.70;85.40;;;;;;5086963;28;20048;-58
2023/01/27 04:07:44;;;;;;;9.05;3.17;;;1.70;85.40;;;;;;5085095;28;20060;-58
2023/01/27 04:10:11;;;;;;;7.97;3.22;;;1.70;85.50;;;;;;5082450;28;20055;-58
2023/01/27 04:12:37;;;;;;;8.00;3.45;;;1.70;85.50;;;;;;5085086;28;20051;-69
2023/01/27 04:15:05;;;;;;;6.35;2.80;;;1.70;85.80;;;;;;5082145;28;20052;-69
2023/01/27 04:17:40;;;;;;;6.78;2.83;;;1.70;85.80;;;;;;5084732;28;20485;-69
2023/01/27 04:20:10;;;;;;;6.20;2.55;;;1.70;85.70;;;;;;5085138;28;20040;-68
2023/01/27 04:22:37;;;;;;;7.03;2.60;;;1.70;85.70;;;;;;5085988;28;20047;-64
2023/01/27 04:25:04;;;;;;;5.63;2.08;;;1.70;85.80;;;;;;5086007;28;20418;-63
2023/01/27 04:27:31;;;;;;;6.78;2.60;;;1.70;85.90;;;;;;5084252;28;20093;-64
2023/01/27 04:29:58;;;;;;;5.38;2.10;;;1.70;85.90;;;;;;5087565;28;20059;-65
2023/01/27 04:32:26;;;;;;;6.03;2.35;;;1.70;85.80;;;;;;5088444;28;20552;-59
2023/01/27 04:34:53;;;;;;;5.68;2.80;;;1.70;85.80;;;;;;5079992;28;20283;-58
2023/01/27 04:37:21;;;;;;;6.55;2.65;;;1.70;85.90;;;;;;5083149;28;20723;-72
2023/01/27 04:39:48;;;;;;;6.55;2.40;;;1.70;85.80;;;;;;5084434;28;20052;-72
2023/01/27 04:42:14;;;;;;;5.38;2.42;;;1.70;85.70;;;;;;5083734;28;20067;-64
2023/01/27 04:44:41;;;;;;;7.03;3.15;;;1.80;85.70;;;;;;5079054;28;20051;-64
2023/01/27 04:47:08;;;;;;;7.53;3.00;;;1.70;85.60;;;;;;5082771;28;20032;-64
2023/01/27 04:49:35;;;;;;;7.00;2.90;;;1.70;85.70;;;;;;5085883;28;20052;-64
2023/01/27 04:52:02;;;;;;;6.30;2.67;;;1.80;85.70;;;;;;5085885;28;20051;-64
2023/01/27 04:54:30;;;;;;;6.00;2.95;;;1.70;85.80;;;;;;5088677;28;20553;-66
2023/01/27 04:56:59;;;;;;;7.95;3.05;;;1.80;85.70;;;;;;5089849;28;20105;-63
2023/01/27 04:59:25;;;;;;;7.68;2.97;;;1.80;85.60;;;;;;5089486;28;20044;-63
2023/01/27 05:01:52;;;;;;;6.63;2.80;;;1.80;85.50;;;;;;5092093;28;20486;-72
2023/01/27 05:04:20;;;;;;;5.40;2.47;;;1.80;85.60;;;;;;5090019;28;20040;-72
2023/01/27 05:06:47;;;;;;;5.90;2.50;;;1.80;85.60;;;;;;5088265;28;20471;-60
2023/01/27 05:09:14;;;;;;;5.80;2.38;;;1.80;85.70;;;;;;5085205;28;20506;-61
2023/01/27 05:11:42;;;;;;;6.70;2.90;;;1.80;85.70;;;;;;5086382;28;20056;-68
2023/01/27 05:14:09;;;;;;;6.53;2.67;;;1.80;85.50;;;;;;5086989;28;20047;-67
2023/01/27 05:16:38;;;;;;;6.70;2.70;;;1.80;85.50;;;;;;5085729;28;20101;-65
2023/01/27 05:19:06;;;;;;;6.88;3.42;;;1.90;85.40;;;;;;5086574;28;20059;-65
2023/01/27 05:21:32;;;;;;;6.85;3.05;;;1.80;85.50;;;;;;5089452;28;20536;-59
2023/01/27 05:23:59;;;;;;;5.85;2.58;;;1.80;85.60;;;;;;5088496;28;20044;-59
2023/01/27 05:26:27;;;;;;;7.45;3.20;;;1.80;85.60;;;;;;5085816;28;20044;-72
2023/01/27 05:28:57;;;;;;;5.63;2.80;;;1.80;85.70;;;;;;5087160;28;20188;-72
2023/01/27 05:31:26;;;;;;;6.05;2.35;;;1.80;85.60;;;;;;5089288;28;20093;-59
2023/01/27 05:33:55;;;;;;;5.07;2.60;;;1.80;85.60;;;;;;5089315;28;20044;-59
2023/01/27 05:36:27;;;;;;;6.78;2.85;;;1.90;85.60;;;;;;5089471;28;20040;-65
2023/01/27 05:38:54;;;;;;;6.20;2.53;;;1.90;85.60;;;;;;5088296;28;20052;-64
2023/01/27 05:41:22;;;;;;;6.50;2.75;;;1.90;85.60;;;;;;5089195;28;20055;-60
2023/01/27 05:43:53;;;;;;;5.55;2.45;;;1.90;85.60;;;;;;5086432;28;20047;-60
2023/01/27 05:46:23;;;;;;;6.68;2.50;;;1.90;85.60;;;;;;5085163;28;20040;-68
2023/01/27 05:48:52;;;;;;;6.22;3.38;;;1.90;85.60;;;;;;5088722;28;20101;-68
2023/01/27 05:51:20;;;;;;;6.68;2.63;;;1.90;85.60;;;;;;5084722;28;20053;-61
2023/01/27 05:53:47;;;;;;;7.28;3.00;;;1.90;85.60;;;;;;5087962;28;20446;-60
2023/01/27 05:56:16;;;;;;;5.80;2.58;;;1.90;85.70;;;;;;5088140;28;20543;-60
2023/01/27 05:58:44;;;;;;;7.53;3.17;;;1.90;85.60;;;;;;5087294;28;20044;-60
2023/01/27 06:01:13;;;;;;;6.57;3.00;;;1.90;85.70;;;;;;5085123;28;20059;-63
2023/01/27 06:03:42;;;;;;;7.38;2.95;;;2.00;85.70;;;;;;5085813;28;20174;-61
2023/01/27 06:06:10;;;;;;;6.85;2.92;;;1.90;85.90;;;;;;5087590;28;20047;-60
2023/01/27 06:08:38;;;;;;;6.90;2.80;;;1.90;86.00;;;;;;5087161;28;20044;-60
2023/01/27 06:11:05;;;;;;;7.05;3.00;;;1.90;86.00;;;;;;5084908;28;20044;-60
2023/01/27 06:13:34;;;;;;;6.55;2.88;;;1.90;86.00;;;;;;5068472;28;20450;-60
2023/01/27 06:16:01;;;;;;;6.28;3.20;;;1.90;86.10;;;;;;5086220;28;20054;-64
2023/01/27 06:18:29;;;;;;;6.80;3.20;;;1.90;86.10;;;;;;5086256;28;20055;-64
2023/01/27 06:20:59;;;;;;;7.82;3.35;;;1.90;86.00;;;;;;5083538;28;21156;-68
2023/01/27 06:23:27;;;;;;;7.40;3.13;;;1.90;86.00;;;;;;5084760;28;20047;-68
2023/01/27 06:25:54;;;;;;;7.88;3.72;;;1.90;86.00;;;;;;5086034;28;20079;-72
2023/01/27 06:28:22;;;;;;;6.80;3.15;;;2.00;86.00;;;;;;5086496;28;20040;-71
2023/01/27 06:30:49;;;;;;;5.75;3.10;;;2.00;86.10;;;;;;5086815;28;20058;-65
2023/01/27 06:33:16;;;;;;;7.90;3.70;;;1.90;86.10;;;;;;5085009;28;20046;-65
2023/01/27 06:35:43;;;;;;;5.97;3.25;;;1.90;86.20;;;;;;5088052;28;20051;-60
2023/01/27 06:38:14;;;;;;;6.45;3.22;;;1.90;86.20;;;;;;5086041;28;20040;-59
2023/01/27 06:40:41;;;;;;;7.95;3.55;;;1.90;86.30;;;;;;5087343;28;20052;-60
2023/01/27 06:43:12;;;;;;;7.78;3.25;;;1.90;86.40;;;;;;5087121;28;20718;-59
2023/01/27 06:45:39;;;;;;;6.07;3.30;;;2.00;86.30;;;;;;5086235;28;20166;-68
2023/01/27 06:48:07;;;;;;;8.32;3.20;;;2.00;86.20;;;;;;5086979;28;20047;-67
2023/01/27 06:50:34;;;;;;;9.63;3.67;;;2.00;86.20;;;;;;5084319;28;20529;-72
2023/01/27 06:53:02;;;;;;;8.52;3.70;;;2.00;86.30;;;;;;5083399;28;20444;-71
2023/01/27 06:55:30;;;;;;;6.93;3.53;;;2.00;86.30;;;;;;5082725;28;20049;-61
2023/01/27 06:57:57;;;;;;;8.88;3.17;;;2.00;86.30;;;;;;5088113;28;20056;-62
2023/01/27 07:00:25;;;;;;;6.30;3.30;;;2.00;86.20;;;;;;5082765;28;20055;-66
2023/01/27 07:02:54;;;;;;;6.97;3.92;;;2.00;86.20;;;;;;5087402;28;20498;-65
2023/01/27 07:05:21;;;;;;;8.60;3.60;;;2.00;86.30;;;;;;5083175;28;20105;-62
2023/01/27 07:07:48;;;;;;;6.22;3.13;;;2.00;86.30;;;;;;5088349;28;20155;-68
2023/01/27 07:10:15;;;;;;;6.35;3.25;;;2.00;86.30;;;;;;5086314;28;20526;-67
2023/01/27 07:12:43;;;;;;;8.70;3.97;;;2.00;86.30;;;;;;5087986;28;20434;-68
2023/01/27 07:15:11;;;;;;;10.18;3.70;;;2.00;86.30;;;;;;5084057;28;20044;-66
2023/01/27 07:17:38;;;;;;;8.07;3.60;;;2.00;86.40;;;;;;5085157;28;20043;-60
2023/01/27 07:20:08;;;;;;;6.88;3.17;;;2.00;86.50;;;;;;5084959;28;20044;-60
2023/01/27 07:22:36;;;;;;;8.45;3.72;;;2.00;86.60;;;;;;5087608;28;20074;-58
2023/01/27 07:25:03;;;;;;;8.27;3.78;;;2.00;86.40;;;;;;5084203;28;20055;-58
2023/01/27 07:27:30;;;;;;;8.20;3.97;;;2.00;86.50;;;;;;5080036;28;20052;-62
2023/01/27 07:29:58;;;;;;;8.93;3.97;;;2.10;86.50;;;;;;5080093;28;20040;-61
2023/01/27 07:32:25;;;;;;;8.18;3.67;;;2.10;86.50;;;;;;5084447;28;20058;-59
2023/01/27 07:34:52;;;;;;;8.48;3.90;;;2.10;86.50;;;;;;5083647;28;20509;-60
2023/01/27 07:37:19;;;;;;;8.30;3.65;;;2.10;86.40;;;;;;5087703;28;20044;-65
2023/01/27 07:39:47;;;;;;;6.82;2.95;;;2.10;86.20;;;;;;5085520;28;21558;-65
2023/01/27 07:42:13;;;;;;;6.47;3.25;;;2.10;86.20;;;;;;5085852;28;20123;-62
2023/01/27 07:44:40;;;;;;;6.80;3.05;;;2.20;86.20;;;;;;5081208;28;20397;-61
2023/01/27 07:47:09;;;;;;;5.53;2.72;;;2.20;86.20;;;;;;5086031;28;20048;-64
2023/01/27 07:49:36;;;;;;;7.55;3.33;;;2.10;86.20;;;;;;5083258;28;20067;-65
2023/01/27 07:52:03;;;;;;;9.65;3.92;;;2.20;86.30;;;;;;5082676;28;20117;-63
2023/01/27 07:54:29;;;;;;;8.80;4.18;;;2.20;86.30;;;;;;5084461;28;20052;-60
2023/01/27 07:56:59;;;;;;;10.27;4.63;;;2.20;86.20;;;;;;5087387;28;20101;-60
2023/01/27 07:59:26;;;;;;;11.65;4.47;;;2.20;86.10;;;;;;5086171;28;20483;-59
2023/01/27 08:01:53;;;;;;;9.65;4.35;;;2.20;86.00;;;;;;5084035;28;20040;-72
2023/01/27 08:04:21;;;;;;;7.88;3.92;;;2.20;86.00;;;;;;5063104;28;20044;-72
2023/01/27 08:06:48;;;;;;;8.95;4.22;;;2.20;86.10;;;;;;5083746;28;20486;-63
2023/01/27 08:09:15;;;;;;;7.57;3.60;;;2.20;86.20;;;;;;5080929;28;20067;-63
2023/01/27 08:11:42;;;;;;;8.98;3.58;;;2.20;86.30;;;;;;5085232;28;20571;-59
2023/01/27 08:14:08;;;;;;;6.55;3.05;;;2.20;86.20;;;;;;5083906;28;20047;-60
2023/01/27 08:16:35;;;;;;;8.40;3.53;;;2.20;86.20;;;;;;5086615;28;20067;-59
2023/01/27 08:19:02;;;;;;;6.43;2.83;;;2.30;86.10;;;;;;5082396;28;20491;-60
2023/01/27 08:21:31;;;;;;;6.90;2.90;;;2.30;86.00;;;;;;5084677;28;20482;-64
2023/01/27 08:23:59;;;;;;;7.18;3.42;;;2.30;85.90;;;;;;5081109;28;20048;-64
2023/01/27 08:26:26;;;;;;;6.85;2.97;;;2.30;85.90;;;;;;5085311;28;20470;-62
2023/01/27 08:28:53;;;;;;;5.88;2.97;;;2.40;85.90;;;;;;5089054;28;20055;-61
2023/01/27 08:31:20;;;;;;;5.93;2.72;;;2.30;85.90;;;;;;5086788;28;20051;-65
2023/01/27 08:33:51;;;;;;;5.30;2.35;;;2.30;86.00;;;;;;5088742;28;20048;-65
2023/01/27 08:36:23;;;;;;;4.50;2.47;;;2.40;85.90;;;;;;5089263;28;20139;-71
2023/01/27 08:38:52;;;;;;;5.90;2.42;;;2.40;85.80;;;;;;5089208;28;20508;-73
2023/01/27 08:41:21;;;;;;;5.47;2.17;;;2.40;85.70;;;;;;5087493;28;20044;-58
2023/01/27 08:43:48;;;;;;;4.82;2.30;;;2.40;85.80;;;;;;5092181;28;20052;-59
2023/01/27 08:46:16;;;;;;;5.40;2.40;;;2.40;85.70;;;;;;5090436;28;20255;-60
2023/01/27 08:48:43;;;;;;;3.70;2.00;;;2.40;85.60;;;;;;5086696;28;20048;-61
2023/01/27 08:51:12;;;;;;;3.75;2.05;;;2.40;85.60;;;;;;5085810;28;20044;-59
2023/01/27 08:53:39;;;;;;;4.80;2.05;;;2.50;85.60;;;;;;5089558;28;20051;-60
2023/01/27 08:56:10;;;;;;;4.43;2.00;;;2.50;85.50;;;;;;5087998;28;20055;-63
2023/01/27 08:58:37;;;;;;;5.22;2.30;;;2.60;85.60;;;;;;5090489;28;20505;-63
2023/01/27 09:01:06;;;;;;;8.27;3.78;;;2.50;85.50;;;;;;5088020;28;20063;-68
2023/01/27 09:03:34;;;;;;;8.60;4.00;;;2.60;85.60;;;;;;5088544;28;20048;-68
2023/01/27 09:06:01;;;;;;;7.88;3.58;;;2.60;85.50;;;;;;5086786;28;20040;-60
2023/01/27 09:08:29;;;;;;;9.52;4.07;;;2.60;85.50;;;;;;5084544;28;20039;-59
2023/01/27 09:10:56;;;;;;;7.15;3.00;;;2.50;85.50;;;;;;5084051;28;20064;-59
2023/01/27 09:13:24;;;;;;;7.25;3.00;;;2.50;85.50;;;;;;5089019;28;20047;-58
2023/01/27 09:15:52;;;;;;;6.80;2.72;;;2.50;85.40;;;;;;5088242;28;20048;-59
2023/01/27 09:18:19;;;;;;;5.38;2.55;;;2.60;85.40;;;;;;5087611;28;20133;-59
2023/01/27 09:20:47;;;;;;;4.97;2.47;;;2.60;85.40;;;;;;5090076;28;20066;-60
2023/01/27 09:23:13;;;;;;;5.72;2.13;;;2.60;85.30;;;;;;5088547;28;20066;-60
2023/01/27 09:25:40;;;;;;;5.32;2.70;;;2.60;85.40;;;;;;5085204;28;20505;-59
2023/01/27 09:28:15;;;;;;;8.05;3.08;;;2.60;85.40;;;;;;5086118;28;20058;-58
2023/01/27 09:30:44;;;;;;;5.32;2.83;;;2.60;85.30;;;;;;5088302;28;20040;-60
2023/01/27 09:33:12;;;;;;;7.57;3.80;;;2.60;85.20;;;;;;5085843;28;20063;-60
2023/01/27 09:35:43;;;;;;;8.32;3.42;;;2.60;85.20;;;;;;5086857;28;20055;-60
2023/01/27 09:38:12;;;;;;;7.13;3.30;;;2.70;85.20;;;;;;5083310;28;20059;-59
2023/01/27 09:40:52;;;;;;;4.90;2.45;;;2.70;85.10;;;;;;5087896;28;20047;-60
2023/01/27 09:43:37;;;;;;;5.00;2.47;;;2.70;85.10;;;;;;5084474;28;20048;-60
2023/01/27 09:46:21;;;;;;;4.30;1.90;;;2.70;85.10;;;;;;5084791;28;20129;-60
2023/01/27 09:49:05;;;;;;;3.50;1.73;;;2.70;85.00;;;;;;5085205;28;20050;-59
2023/01/27 09:51:42;;;;;;;4.20;1.77;;;2.70;84.90;;;;;;5084688;28;20498;-63
2023/01/27 09:54:23;;;;;;;5.68;1.88;;;2.80;84.90;;;;;;5084473;28;20482;-64
2023/01/27 09:56:57;;;;;;;4.35;1.48;;;2.80;84.90;;;;;;5084535;28;20436;-65
2023/01/27 09:59:43;;;;;;;3.72;1.50;;;2.80;84.90;;;;;;5083631;28;20052;-65
2023/01/27 10:02:21;;;;;;;4.63;1.50;;;2.90;84.80;;;;;;5085404;28;20619;-65
2023/01/27 10:05:19;;;;;;;5.80;2.03;;;2.80;84.80;;;;;;5085903;28;20044;-64
2023/01/27 10:08:11;;;;;;;3.17;1.50;;;2.90;84.80;;;;;;5086865;28;20474;-64
2023/01/27 10:10:48;;;;;;;5.10;1.33;;;2.90;84.80;;;;;;5085123;28;20043;-58
2023/01/27 10:13:26;;;;;;;3.63;1.60;;;2.90;84.80;;;;;;5088094;28;20040;-59
2023/01/27 10:16:12;;;;;;;3.67;1.45;;;3.00;84.70;;;;;;5087093;28;20496;-71
2023/01/27 10:18:54;;;;;;;3.85;1.40;;;3.00;84.80;;;;;;5088198;28;20055;-72
2023/01/27 10:21:31;;;;;;;3.17;1.35;;;3.10;84.70;;;;;;5088455;28;20047;-72
2023/01/27 10:24:12;;;;;;;3.15;1.45;;;3.10;84.60;;;;;;5087736;28;20048;-72
2023/01/27 10:26:42;;;;;;;3.22;1.35;;;3.20;84.60;;;;;;5087504;28;20044;-65
2023/01/27 10:29:15;;;;;;;6.68;2.45;;;3.20;84.40;;;;;;5087259;28;20048;-64
2023/01/27 10:31:48;;;;;;;4.75;1.65;;;3.20;84.50;;;;;;5086671;28;20056;-66
2023/01/27 10:34:26;;;;;;;3.92;1.77;;;3.20;84.30;;;;;;5085060;28;20041;-67
2023/01/27 10:37:03;;;;;;;2.88;1.30;;;3.20;84.20;;;;;;5088822;28;20048;-71
2023/01/27 10:39:38;;;;;;;2.53;1.15;;;3.20;84.10;;;;;;5086448;28;20074;-71
2023/01/27 10:42:14;;;;;;;2.95;1.08;;;3.20;84.10;;;;;;5084550;28;20048;-65
2023/01/27 10:44:55;;;;;;;2.92;1.20;;;3.20;84.00;;;;;;5085123;28;20058;-65
2023/01/27 10:47:26;;;;;;;;;;;3.10;84.00;;;;;;5088281;28;20070;-66
2023/01/27 10:49:59;;;;;;;1.83;0.95;;;3.10;84.00;;;;;;5085773;28;19920;-64
2023/01/27 10:52:34;;;;;;;2.63;1.10;;;3.20;83.90;;;;;;5084497;28;20453;-62
2023/01/27 10:55:05;;;;;;;2.95;1.40;;;3.20;83.90;;;;;;5086117;28;20403;-61
2023/01/27 10:57:38;;;;;;;2.22;1.00;;;3.20;83.90;;;;;;5086434;28;20056;-60
2023/01/27 11:00:13;;;;;;;2.03;1.05;;;3.20;83.90;;;;;;5084874;28;20044;-60
2023/01/27 11:02:48;;;;;;;3.88;1.55;;;3.20;84.00;;;;;;5089017;28;20052;-61
2023/01/27 11:05:20;;;;;;;2.45;1.02;;;3.20;84.00;;;;;;5086205;28;20063;-72
2023/01/27 11:07:52;;;;;;;2.47;1.00;;;3.20;84.00;;;;;;5086665;28;20076;-70
2023/01/27 11:10:20;;;;;;;3.10;1.05;;;3.20;83.80;;;;;;5085829;28;20044;-68
2023/01/27 11:12:50;;;;;;;1.98;0.90;;;3.20;83.80;;;;;;5086739;28;20040;-68
2023/01/27 11:15:24;;;;;;;1.53;0.63;;;3.20;83.80;;;;;;5082269;28;20040;-72
2023/01/27 11:17:57;;;;;;;2.10;0.75;;;3.30;83.80;;;;;;5083817;28;20462;-71
2023/01/27 11:20:29;;;;;;;2.05;0.80;;;3.30;83.70;;;;;;5085297;28;20060;-68
2023/01/27 11:23:03;;;;;;;1.40;0.80;;;3.30;83.70;;;;;;5086652;28;20050;-68
2023/01/27 11:25:41;;;;;;;1.23;0.73;;;3.30;83.70;;;;;;5085515;28;20388;-72
2023/01/27 11:28:20;;;;;;;1.15;0.70;;;3.30;83.40;;;;;;5086838;28;20076;-71
2023/01/27 11:30:52;;;;;;;1.98;0.80;;;3.40;83.50;;;;;;5084966;28;20043;-59
2023/01/27 11:33:25;;;;;;;1.20;0.70;;;3.40;83.40;;;;;;5077761;28;20052;-59
2023/01/27 11:35:54;;;;;;;1.23;0.73;;;3.40;83.50;;;;;;5080017;28;20075;-59
2023/01/27 11:38:23;;;;;;;3.05;0.73;;;3.40;83.40;;;;;;5085718;28;20048;-59
2023/01/27 11:40:52;;;;;;;2.10;0.80;;;3.50;83.30;;;;;;5083981;28;20874;-58
2023/01/27 11:43:23;;;;;;;1.20;0.70;;;3.50;83.20;;;;;;5084558;28;20555;-59
2023/01/27 11:45:52;;;;;;;;;;;3.50;83.30;;;;;;5086709;28;20048;-63
2023/01/27 11:48:19;;;;;;;2.25;0.70;;;3.50;83.10;;;;;;5084934;28;19920;-62
2023/01/27 11:50:47;;;;;;;1.13;0.60;;;3.50;82.90;;;;;;5081848;28;20040;-61
2023/01/27 11:53:22;;;;;;;1.73;0.70;;;3.50;82.90;;;;;;5082588;28;20509;-63
2023/01/27 11:55:52;;;;;;;1.52;0.70;;;3.50;82.80;;;;;;5087367;28;20048;-62
2023/01/27 11:58:24;;;;;;;2.28;0.63;;;3.50;82.80;;;;;;5084774;28;20406;-62
2023/01/27 12:00:56;;;;;;;2.22;0.70;;;3.50;82.60;;;;;;5080922;28;20072;-71
2023/01/27 12:03:28;;;;;;;1.42;0.50;;;3.40;82.70;;;;;;5085147;28;20368;-73
2023/01/27 12:05:56;;;;;;;1.65;0.55;;;3.50;82.60;;;;;;5085408;28;20064;-59
2023/01/27 12:08:39;;;;;;;1.95;0.70;;;3.50;82.50;;;;;;5084598;28;20508;-59
2023/01/27 12:11:18;;;;;;;1.50;0.60;;;3.50;82.30;;;;;;5081824;28;20043;-64
2023/01/27 12:14:00;;;;;;;0.80;0.30;;;3.50;82.40;;;;;;5086581;28;20044;-63
2023/01/27 12:16:43;;;;;;;2.28;0.70;;;3.50;82.40;;;;;;5081822;28;20051;-65
2023/01/27 12:19:22;;;;;;;1.25;0.55;;;3.60;82.40;;;;;;5086253;28;20070;-65
2023/01/27 12:21:52;;;;;;;1.15;0.40;;;3.60;82.40;;;;;;5086371;28;20040;-61
2023/01/27 12:24:29;;;;;;;1.60;0.70;;;3.60;82.30;;;;;;5082460;28;20040;-61
2023/01/27 12:26:57;;;;;;;1.58;0.60;;;3.60;82.40;;;;;;5080500;28;20047;-73
2023/01/27 12:29:28;;;;;;;1.80;0.70;;;3.60;82.20;;;;;;5082142;28;20491;-71
2023/01/27 12:31:58;;;;;;;2.00;0.80;;;3.60;82.30;;;;;;5082760;28;20105;-59
2023/01/27 12:34:32;;;;;;;1.75;0.68;;;3.70;82.30;;;;;;5078440;28;20383;-60
2023/01/27 12:37:00;;;;;;;1.15;0.40;;;3.70;82.10;;;;;;5085816;28;20051;-60
2023/01/27 12:39:36;;;;;;;1.10;0.60;;;3.70;82.10;;;;;;5084346;28;20056;-59
2023/01/27 12:42:03;;;;;;;2.47;0.90;;;3.70;82.10;;;;;;5081383;28;20044;-61
2023/01/27 12:44:42;;;;;;;2.20;0.80;;;3.80;81.90;;;;;;5082789;28;20048;-59
2023/01/27 12:47:23;;;;;;;1.58;0.65;;;3.80;82.10;;;;;;5085095;28;20051;-61
2023/01/27 12:49:50;;;;;;;1.10;0.55;;;3.80;81.80;;;;;;5083893;28;20506;-60
2023/01/27 12:52:19;;;;;;;1.20;0.60;;;3.80;81.60;;;;;;5082884;28;20151;-60
2023/01/27 12:54:50;;;;;;;1.13;0.70;;;3.80;81.70;;;;;;5081449;28;20521;-60
2023/01/27 12:57:19;;;;;;;2.28;0.77;;;3.80;81.90;;;;;;5085927;28;20051;-61
2023/01/27 12:59:50;;;;;;;1.05;0.50;;;3.80;81.70;;;;;;5080434;28;20040;-61
2023/01/27 13:02:18;;;;;;;;;;;3.80;81.70;;;;;;5082808;28;20064;-60
2023/01/27 13:04:51;;;;;;;1.92;0.75;;;3.90;81.70;;;;;;5085910;28;19956;-61
2023/01/27 13:07:23;;;;;;;1.75;0.80;;;3.90;81.80;;;;;;5082849;28;20082;-59
2023/01/27 13:09:55;;;;;;;2.78;1.08;;;3.90;81.90;;;;;;5081894;28;20130;-59
2023/01/27 13:12:26;;;;;;;2.72;1.15;;;3.90;81.90;;;;;;5080996;28;20131;-70
2023/01/27 13:14:56;;;;;;;2.92;1.15;;;3.80;81.80;;;;;;5082372;28;20222;-71
2023/01/27 13:17:29;;;;;;;1.73;0.80;;;3.80;81.70;;;;;;5089170;28;20059;-63
2023/01/27 13:19:59;;;;;;;1.67;0.85;;;3.80;81.80;;;;;;5085647;28;20050;-64
2023/01/27 13:22:27;;;;;;;2.22;0.93;;;3.80;81.60;;;;;;5088842;28;20040;-60
2023/01/27 13:25:03;;;;;;;1.88;0.80;;;3.80;81.70;;;;;;5088134;28;20060;-61
2023/01/27 13:27:39;;;;;;;1.85;0.65;;;3.80;81.70;;;;;;5086505;28;20056;-60
2023/01/27 13:30:16;;;;;;;1.85;0.80;;;3.90;81.60;;;;;;5086593;28;20120;-61
2023/01/27 13:32:48;;;;;;;2.13;0.70;;;3.80;81.80;;;;;;5090189;28;20060;-62
2023/01/27 13:35:21;;;;;;;1.30;0.57;;;3.90;81.80;;;;;;5082319;28;20661;-60
2023/01/27 13:37:57;;;;;;;1.60;0.70;;;3.90;81.60;;;;;;5090848;28;20131;-61
2023/01/27 13:40:30;;;;;;;1.83;0.70;;;3.90;81.50;;;;;;5088749;28;20559;-67